createdAt,value
2018-04-02T00:01:09.390Z,99183.41
2018-04-02T00:03:41.583Z,99186.66
2018-04-02T00:06:13.811Z,99186.00
2018-04-02T00:25:21.868Z,99178.62
2018-04-02T00:27:55.533Z,99179.36
2018-04-02T00:30:27.726Z,99172.64
2018-04-02T00:33:00.466Z,99181.39
2018-04-02T00:35:32.762Z,99186.62
2018-04-02T00:38:05.629Z,99192.01
2018-04-02T00:40:37.971Z,99189.04
2018-04-02T00:43:10.154Z,99186.50
2018-04-02T00:45:42.468Z,99188.50
2018-04-02T00:48:14.872Z,99191.57
2018-04-02T00:50:47.662Z,99191.33
2018-04-02T00:53:20.374Z,99189.12
2018-04-02T00:55:52.687Z,99196.59
2018-04-02T00:58:24.929Z,99198.61
2018-04-02T01:00:57.046Z,99193.32
2018-04-02T01:20:02.157Z,99211.23
2018-04-02T01:22:34.313Z,99200.73
2018-04-02T01:25:06.552Z,99200.61
2018-04-02T01:27:38.791Z,99208.81
2018-04-02T01:46:43.949Z,99202.03
2018-04-02T01:49:17.019Z,99205.14
2018-04-02T01:51:49.998Z,99203.05
2018-04-02T02:10:54.660Z,99210.46
2018-04-02T02:13:26.898Z,99214.53
2018-04-02T02:15:59.334Z,99214.75
2018-04-02T02:35:06.203Z,99225.88
2018-04-02T02:37:38.245Z,99227.85
2018-04-02T02:40:10.350Z,99228.30
2018-04-02T02:42:42.472Z,99228.02
2018-04-02T03:01:46.525Z,99218.45
2018-04-02T03:04:18.935Z,99213.57
2018-04-02T03:06:51.105Z,99218.97
2018-04-02T03:25:57.770Z,99217.98
2018-04-02T03:28:30.058Z,99217.52
2018-04-02T03:31:02.393Z,99217.78
2018-04-02T03:50:07.198Z,99228.34
2018-04-02T03:52:39.347Z,99218.20
2018-04-02T03:55:11.365Z,99219.70
2018-04-02T04:14:19.385Z,99222.80
2018-04-02T04:16:51.368Z,99222.91
2018-04-02T04:19:23.419Z,99221.94
2018-04-02T04:21:55.429Z,99220.92
2018-04-02T04:40:59.618Z,99228.23
2018-04-02T04:43:31.932Z,99218.52
2018-04-02T04:46:04.847Z,99223.52
2018-04-02T05:05:09.734Z,99227.55
2018-04-02T05:07:41.835Z,99228.33
2018-04-02T05:10:14.020Z,99223.58
2018-04-02T05:12:46.040Z,99227.11
2018-04-02T05:31:53.042Z,99225.66
2018-04-02T05:34:25.222Z,99225.59
2018-04-02T05:36:57.626Z,99219.75
2018-04-02T05:56:05.251Z,99224.13
2018-04-02T05:58:38.179Z,99223.94
2018-04-02T06:01:10.297Z,99226.33
2018-04-02T06:03:42.494Z,99225.30
2018-04-02T06:06:15.427Z,99226.81
2018-04-02T06:08:47.487Z,99232.53
2018-04-02T06:11:20.277Z,99229.13
2018-04-02T06:13:52.327Z,99227.89
2018-04-02T06:16:25.589Z,99227.00
2018-04-02T06:18:58.079Z,99230.02
2018-04-02T06:21:30.120Z,99224.95
2018-04-02T06:24:02.324Z,99224.53
2018-04-02T06:26:35.045Z,99224.35
2018-04-02T06:29:07.118Z,99227.00
2018-04-02T06:31:39.483Z,99222.20
2018-04-02T06:34:11.671Z,99223.50
2018-04-02T06:36:44.036Z,99221.45
2018-04-02T06:39:16.420Z,99229.05
2018-04-02T06:41:48.478Z,99224.80
2018-04-02T06:44:20.586Z,99226.99
2018-04-02T07:03:26.131Z,99225.72
2018-04-02T07:05:58.220Z,99227.30
2018-04-02T07:08:31.124Z,99223.61
2018-04-02T07:11:03.285Z,99232.86
2018-04-02T07:30:07.912Z,99234.44
2018-04-02T07:32:42.291Z,99234.91
2018-04-02T07:35:15.949Z,99236.27
2018-04-02T07:37:48.397Z,99234.26
2018-04-02T07:40:20.695Z,99229.08
2018-04-02T07:42:53.165Z,99230.35
2018-04-02T07:45:25.471Z,99225.84
2018-04-02T08:04:36.560Z,99230.47
2018-04-02T08:07:08.729Z,99225.88
2018-04-02T08:09:41.077Z,99227.12
2018-04-02T08:28:47.763Z,99218.58
2018-04-02T08:31:22.035Z,99213.69
2018-04-02T08:33:54.315Z,99210.45
2018-04-02T08:53:03.700Z,99213.08
2018-04-02T08:55:36.025Z,99216.15
2018-04-02T08:58:08.374Z,99214.13
2018-04-02T09:17:13.868Z,99210.09
2018-04-02T09:19:48.397Z,99210.36
2018-04-02T09:22:24.063Z,99200.17
2018-04-02T09:24:56.806Z,99200.47
2018-04-02T09:27:30.297Z,99201.44
2018-04-02T09:30:04.984Z,99196.52
2018-04-02T09:32:39.499Z,99196.27
2018-04-02T09:35:13.590Z,99194.56
2018-04-02T09:37:47.586Z,99196.05
2018-04-02T09:40:21.345Z,99188.69
2018-04-02T09:42:53.832Z,99176.66
2018-04-02T10:02:06.418Z,99169.07
2018-04-02T10:04:43.966Z,99171.22
2018-04-02T10:07:16.199Z,99168.49
2018-04-02T10:09:48.539Z,99164.05
2018-04-02T10:12:24.105Z,99162.45
2018-04-02T10:14:56.750Z,99157.56
2018-04-02T10:17:32.025Z,99169.34
2018-04-02T10:20:05.168Z,99165.81
2018-04-02T10:22:38.355Z,99149.33
2018-04-02T10:25:15.311Z,99140.88
2018-04-02T10:27:48.213Z,99134.99
2018-04-02T10:30:23.896Z,99129.75
2018-04-02T10:32:56.278Z,99119.85
2018-04-02T10:35:28.876Z,99119.89
2018-04-02T10:38:01.392Z,99125.41
2018-04-02T10:40:35.494Z,99120.46
2018-04-02T10:43:08.361Z,99121.34
2018-04-02T10:45:41.007Z,99118.27
2018-04-02T10:48:14.808Z,99113.68
2018-04-02T10:50:47.191Z,99111.20
2018-04-02T10:53:19.708Z,99101.61
2018-04-02T10:55:51.961Z,99100.30
2018-04-02T10:58:25.800Z,99098.08
2018-04-02T11:00:59.821Z,99103.43
2018-04-02T11:20:04.341Z,99082.18
2018-04-02T11:22:39.408Z,99077.66
2018-04-02T11:25:11.600Z,99068.89
2018-04-02T11:44:22.687Z,99061.23
2018-04-02T11:46:55.485Z,99060.90
2018-04-02T11:49:27.837Z,99050.73
2018-04-02T11:52:00.277Z,99062.90
2018-04-02T11:54:35.575Z,99061.28
2018-04-02T11:57:07.929Z,99056.66
2018-04-02T11:59:42.137Z,99047.17
2018-04-02T12:02:16.378Z,99043.81
2018-04-02T12:04:49.700Z,99052.13
2018-04-02T12:23:52.658Z,99017.02
2018-04-02T12:26:27.576Z,99011.13
2018-04-02T12:29:00.051Z,99011.92
2018-04-02T12:31:34.915Z,99007.11
2018-04-02T12:34:09.347Z,98996.88
2018-04-02T12:36:42.638Z,98998.59
2018-04-02T12:39:15.210Z,99001.73
2018-04-02T12:41:49.775Z,98995.68
2018-04-02T12:44:22.189Z,98984.48
2018-04-02T12:46:54.776Z,98991.23
2018-04-02T12:49:29.071Z,98990.20
2018-04-02T12:52:02.271Z,98989.61
2018-04-02T12:54:35.786Z,98980.02
2018-04-02T12:57:07.994Z,98975.78
2018-04-02T13:16:17.916Z,98961.73
2018-04-02T13:18:52.534Z,98962.22
2018-04-02T13:21:24.798Z,98962.35
2018-04-02T13:23:58.277Z,98951.13
2018-04-02T13:26:40.706Z,98955.46
2018-04-02T13:29:18.030Z,98949.22
2018-04-02T13:31:50.852Z,98943.77
2018-04-02T13:34:26.296Z,98937.89
2018-04-02T13:36:59.576Z,98933.03
2018-04-02T13:39:35.283Z,98931.22
2018-04-02T13:42:07.817Z,98921.20
2018-04-02T13:44:40.208Z,98915.03
2018-04-02T13:47:12.857Z,98914.13
2018-04-02T13:49:46.966Z,98903.54
2018-04-02T13:52:22.548Z,98909.67
2018-04-02T13:54:57.274Z,98907.79
2018-04-02T13:57:29.607Z,98899.04
2018-04-02T14:00:02.201Z,98900.88
2018-04-02T14:02:36.351Z,98897.30
2018-04-02T14:05:08.719Z,98883.68
2018-04-02T14:07:44.392Z,98891.83
2018-04-02T14:10:20.751Z,98888.69
2018-04-02T14:12:53.188Z,98883.78
2018-04-02T14:15:28.601Z,98882.84
2018-04-02T14:18:03.240Z,98881.63
2018-04-02T14:20:42.608Z,98868.05
2018-04-02T14:23:15.815Z,98868.95
2018-04-02T14:25:50.362Z,98862.38
2018-04-02T14:44:54.352Z,98848.70
2018-04-02T14:47:27.520Z,98851.65
2018-04-02T14:49:59.803Z,98856.61
2018-04-02T15:09:06.925Z,98797.71
2018-04-02T15:11:40.046Z,98797.13
2018-04-02T15:14:13.909Z,98795.41
2018-04-02T15:16:47.469Z,98799.17
2018-04-02T15:19:19.779Z,98790.76
2018-04-02T15:21:52.320Z,98793.08
2018-04-02T15:24:26.516Z,98782.87
2018-04-02T15:26:58.769Z,98773.36
2018-04-02T15:29:32.249Z,98779.13
2018-04-02T15:32:06.111Z,98773.06
2018-04-02T15:34:40.259Z,98773.13
2018-04-02T15:37:16.226Z,98765.27
2018-04-02T15:39:50.465Z,98766.04
2018-04-02T15:42:23.135Z,98767.28
2018-04-02T15:44:55.557Z,98766.18
2018-04-02T15:47:30.042Z,98761.91
2018-04-02T15:50:03.011Z,98760.81
2018-04-02T15:52:38.752Z,98758.64
2018-04-02T15:55:12.735Z,98754.84
2018-04-02T16:14:21.562Z,98749.34
2018-04-02T16:16:59.245Z,98746.84
2018-04-02T16:19:31.467Z,98749.79
2018-04-02T16:38:39.150Z,98738.13
2018-04-02T16:41:18.295Z,98739.73
2018-04-02T16:43:57.617Z,98739.88
2018-04-02T17:02:59.835Z,98722.34
2018-04-02T17:05:38.122Z,98719.09
2018-04-02T17:08:18.592Z,98719.20
2018-04-02T17:27:27.365Z,98705.46
2018-04-02T17:30:07.130Z,98699.48
2018-04-02T17:32:47.652Z,98704.41
2018-04-02T17:35:28.032Z,98702.29
2018-04-02T17:54:31.410Z,98686.70
2018-04-02T17:57:13.002Z,98685.73
2018-04-02T17:59:51.288Z,98691.73
2018-04-02T18:18:54.908Z,98682.28
2018-04-02T18:21:34.196Z,98680.04
2018-04-02T18:24:13.050Z,98678.75
2018-04-02T18:43:20.667Z,98684.09
2018-04-02T18:45:58.135Z,98676.65
2018-04-02T18:48:35.843Z,98677.44
2018-04-02T19:07:45.293Z,98674.64
2018-04-02T19:10:22.940Z,98675.61
2018-04-02T19:13:01.315Z,98672.52
2018-04-02T19:19:07.820Z,98675.58
2018-04-02T19:21:48.260Z,98669.72
2018-04-02T19:24:27.599Z,98660.61
2018-04-02T19:27:08.615Z,98659.83
2018-04-02T19:29:48.899Z,98656.38
2018-04-02T19:32:29.983Z,98661.55
2018-04-02T19:35:09.725Z,98658.42
2018-04-02T19:37:49.793Z,98658.55
2018-04-02T19:40:29.191Z,98658.22
2018-04-02T19:43:09.565Z,98654.48
2018-04-02T19:45:49.108Z,98653.11
2018-04-02T19:48:30.003Z,98653.97
2018-04-02T19:51:09.832Z,98656.93
2018-04-02T19:53:50.580Z,98648.12
2018-04-02T19:56:30.277Z,98642.30
2018-04-02T19:59:11.141Z,98644.36
2018-04-02T20:01:50.538Z,98643.42
2018-04-02T20:04:31.857Z,98636.78
2018-04-02T20:07:11.391Z,98628.27
2018-04-02T20:09:52.147Z,98624.60
2018-04-02T20:12:32.066Z,98625.66
2018-04-02T20:15:13.011Z,98618.74
2018-04-02T20:17:48.804Z,98617.59
2018-04-02T20:20:25.461Z,98617.56
2018-04-02T20:23:01.241Z,98619.95
2018-04-02T20:25:39.277Z,98621.03
2018-04-02T20:28:14.587Z,98617.18
2018-04-02T20:30:50.040Z,98616.98
2018-04-02T20:33:26.792Z,98614.84
2018-04-02T20:36:04.167Z,98611.52
2018-04-02T20:38:39.392Z,98605.84
2018-04-02T20:41:15.258Z,98608.88
2018-04-02T20:43:50.424Z,98612.64
2018-04-02T20:46:26.526Z,98608.76
2018-04-02T20:49:00.853Z,98598.95
2018-04-02T20:51:37.137Z,98603.89
2018-04-02T20:54:14.659Z,98590.26
2018-04-02T20:56:50.300Z,98589.56
2018-04-02T20:59:25.506Z,98589.88
2018-04-02T21:01:59.706Z,98587.73
2018-04-02T21:04:35.803Z,98587.38
2018-04-02T21:07:10.325Z,98582.38
2018-04-02T21:09:45.727Z,98579.98
2018-04-02T21:12:21.330Z,98573.66
2018-04-02T21:14:56.374Z,98575.37
2018-04-02T21:17:30.932Z,98567.47
2018-04-02T21:20:07.818Z,98567.81
2018-04-02T21:22:41.673Z,98563.17
2018-04-02T21:25:17.410Z,98561.35
2018-04-02T21:27:51.698Z,98559.92
2018-04-02T21:30:25.962Z,98557.61
2018-04-02T21:32:59.982Z,98561.78
2018-04-02T21:35:34.567Z,98549.76
2018-04-02T21:38:13.134Z,98555.17
2018-04-02T21:40:47.644Z,98551.23
2018-04-02T21:43:22.328Z,98542.93
2018-04-02T21:46:01.620Z,98550.92
2018-04-02T21:48:36.116Z,98542.84
2018-04-02T21:51:10.842Z,98546.62
2018-04-02T21:53:47.984Z,98539.56
2018-04-02T21:56:30.047Z,98534.00
2018-04-02T21:59:09.347Z,98538.34
2018-04-02T22:01:44.425Z,98533.68
2018-04-02T22:04:20.328Z,98530.98
2018-04-02T22:07:06.926Z,98530.77
2018-04-02T22:09:41.637Z,98533.17
2018-04-02T22:12:16.454Z,98524.20
2018-04-02T22:14:54.621Z,98525.63
2018-04-02T22:17:33.141Z,98522.61
2018-04-02T22:20:11.575Z,98529.87
2018-04-02T22:22:45.952Z,98524.38
2018-04-02T22:25:20.713Z,98525.84
2018-04-02T22:27:55.567Z,98527.44
2018-04-02T22:30:31.117Z,98517.56
2018-04-02T22:33:05.914Z,98523.43
2018-04-02T22:35:53.902Z,98517.44
2018-04-02T22:38:28.380Z,98517.56
2018-04-02T22:41:03.801Z,98510.50
2018-04-02T22:43:39.690Z,98511.79
2018-04-02T22:46:14.186Z,98503.91
2018-04-02T22:48:57.573Z,98500.57
2018-04-02T22:51:31.597Z,98496.48
2018-04-02T22:54:10.089Z,98489.59
2018-04-02T22:56:44.883Z,98488.97
2018-04-02T22:59:21.576Z,98486.84
2018-04-02T23:01:59.160Z,98492.65
2018-04-02T23:04:33.466Z,98488.16
2018-04-02T23:07:08.679Z,98478.84
2018-04-02T23:09:44.367Z,98476.95
2018-04-02T23:12:18.879Z,98480.68
2018-04-02T23:14:57.798Z,98481.09
2018-04-02T23:34:07.087Z,98470.02
2018-04-02T23:36:44.886Z,98475.86
2018-04-02T23:55:49.374Z,98446.75
2018-04-02T23:58:24.995Z,98440.69
